Tropical Cyclones
[Index]
Main Index Home Page Stock Weather Photos Extreme Storms Discussion Storm News and Storm Chasing Reports Tropical Cyclones / Hurricanes / Typhoons Weather Data and Links Wild Fires / Bushfires Weather Observation Techniques Weather Picture Catalogue Tornado Pictures and Reports Stock Video Footage and DVDs for sale
Season 1998-1999 Tropical Cyclone OLINDA Track Map
Season 1998-1999 Summaries: [BoM-AU] [JTWC-AU] [JTWC-SIO] [JTWC-SPAC] [JTWC-SH]
<<- Previous TC | JTWC 1998-1999 Season | Next TC ->>

click for intensity scale information  Lat/long Grid: Show Hide

 Date Labels: Show Hide

Joint Typhoon Warning Centre Cyclone Data

Name: OLINDA

19 Jan 1999 12:00 UTC to 26 Jan 1999 00:00 UTC

    date/time    lat    long     hPa   cat  kts
1999-01-19 12   16.8   157.6                  25          
1999-01-19 18   16.8   157.8                  25          
1999-01-20 00   16.9   158.0                  30          
1999-01-20 06   17.0   158.2                  25          
1999-01-20 12   17.2   158.3                  25          
1999-01-20 18   17.4   158.4                  25          
1999-01-21 00   17.9   158.4                  30          
1999-01-21 06   18.5   158.5                  30          
1999-01-21 12   19.2   158.9                  30          
1999-01-21 18   20.0   159.5            1     45          
1999-01-22 00   20.9   160.2            2     55          
1999-01-22 06   22.0   161.3            2     55          
1999-01-22 12   23.3   163.0            2     55          
1999-01-22 18   24.5   164.7            2     55          
1999-01-23 00   25.7   166.8            1     50          
1999-01-23 06   26.0   168.8            1     45          
1999-01-23 12   26.1   170.7            1     45          
1999-01-23 18   25.8   172.4            1     45          
1999-01-24 00   25.7   173.8            1     40          
1999-01-24 06   25.9   175.4            1     40          
1999-01-24 12   26.2   177.0                  35          
1999-01-24 18   26.5   177.8                  35          
1999-01-25 00   26.7   178.3                  30          
1999-01-25 06   27.0   178.8                  30          
1999-01-25 12   27.4   179.1                  30          
1999-01-25 18   28.1   179.6                  25          
1999-01-26 00   28.8   179.9W                 25          
Winds are 1-min average.

Tropical cyclone tracks developed by Michael Bath using data from the Joint Typhoon Warning Centre Best Tracks and Google Maps.


[Australian Severe Weather index] [Copyright Notice] [Email Contacts] [Search This Site] [Privacy Policy]
Document: tropical_cyclone_olinda.htm Updated: 18 September 2016